sensor_id;sensor_type;location;lat;lon;timestamp;pressure;altitude;pressure_sealevel;temperature;humidity
55347;BME280;41218;55.700;38.270;2024-03-08T00:01:50;99913.53;;;-5.25;61.10
55347;BME280;41218;55.700;38.270;2024-03-08T00:06:50;99910.81;;;-5.25;61.27
55347;BME280;41218;55.700;38.270;2024-03-08T00:11:51;99888.91;;;-5.39;61.55
55347;BME280;41218;55.700;38.270;2024-03-08T00:16:52;99890.28;;;-5.36;61.39
55347;BME280;41218;55.700;38.270;2024-03-08T00:21:54;99881.59;;;-5.44;61.76
55347;BME280;41218;55.700;38.270;2024-03-08T00:26:55;99882.69;;;-5.39;61.52
55347;BME280;41218;55.700;38.270;2024-03-08T00:31:56;99865.16;;;-5.47;61.44
55347;BME280;41218;55.700;38.270;2024-03-08T00:36:56;99868.91;;;-5.48;61.67
55347;BME280;41218;55.700;38.270;2024-03-08T00:41:57;99855.69;;;-5.55;61.65
55347;BME280;41218;55.700;38.270;2024-03-08T00:46:57;99845.72;;;-5.54;61.87
55347;BME280;41218;55.700;38.270;2024-03-08T00:51:59;99829.00;;;-5.61;61.87
55347;BME280;41218;55.700;38.270;2024-03-08T00:56:59;99828.69;;;-5.65;61.30
55347;BME280;41218;55.700;38.270;2024-03-08T01:02:03;99825.75;;;-5.64;61.47
55347;BME280;41218;55.700;38.270;2024-03-08T01:07:06;99821.97;;;-5.68;61.99
55347;BME280;41218;55.700;38.270;2024-03-08T01:12:07;99835.69;;;-5.64;61.81
55347;BME280;41218;55.700;38.270;2024-03-08T01:17:07;99816.84;;;-5.64;61.80
55347;BME280;41218;55.700;38.270;2024-03-08T01:22:09;99821.19;;;-5.58;61.71
55347;BME280;41218;55.700;38.270;2024-03-08T01:27:10;99808.56;;;-5.57;61.67
55347;BME280;41218;55.700;38.270;2024-03-08T01:32:12;99805.81;;;-5.63;61.32
55347;BME280;41218;55.700;38.270;2024-03-08T01:37:12;99813.38;;;-5.59;61.53
55347;BME280;41218;55.700;38.270;2024-03-08T01:42:14;99809.31;;;-5.62;62.07
55347;BME280;41218;55.700;38.270;2024-03-08T01:47:17;99817.13;;;-5.60;61.25
55347;BME280;41218;55.700;38.270;2024-03-08T01:52:18;99815.00;;;-5.64;61.45
55347;BME280;41218;55.700;38.270;2024-03-08T01:57:23;99797.44;;;-5.71;61.70
55347;BME280;41218;55.700;38.270;2024-03-08T02:02:25;99810.34;;;-5.68;62.07
55347;BME280;41218;55.700;38.270;2024-03-08T02:07:27;99785.28;;;-5.74;61.58
55347;BME280;41218;55.700;38.270;2024-03-08T02:12:28;99787.44;;;-5.76;61.55
55347;BME280;41218;55.700;38.270;2024-03-08T02:17:29;99785.78;;;-5.82;62.30
55347;BME280;41218;55.700;38.270;2024-03-08T02:22:31;99772.84;;;-5.85;61.50
55347;BME280;41218;55.700;38.270;2024-03-08T02:27:34;99765.81;;;-5.91;61.90
55347;BME280;41218;55.700;38.270;2024-03-08T02:32:35;99767.16;;;-5.94;62.09
55347;BME280;41218;55.700;38.270;2024-03-08T02:37:35;99762.31;;;-5.97;61.96
55347;BME280;41218;55.700;38.270;2024-03-08T02:42:39;99750.44;;;-6.06;61.73
55347;BME280;41218;55.700;38.270;2024-03-08T02:47:40;99749.88;;;-6.08;61.69
55347;BME280;41218;55.700;38.270;2024-03-08T02:52:40;99742.88;;;-6.09;62.02
55347;BME280;41218;55.700;38.270;2024-03-08T02:57:42;99746.66;;;-6.10;62.02
55347;BME280;41218;55.700;38.270;2024-03-08T03:02:44;99741.47;;;-6.17;61.54
55347;BME280;41218;55.700;38.270;2024-03-08T03:07:44;99729.09;;;-6.18;62.11
55347;BME280;41218;55.700;38.270;2024-03-08T03:12:45;99725.88;;;-6.15;62.31
55347;BME280;41218;55.700;38.270;2024-03-08T03:17:50;99706.19;;;-6.26;62.56
55347;BME280;41218;55.700;38.270;2024-03-08T03:22:51;99709.97;;;-6.16;62.07
55347;BME280;41218;55.700;38.270;2024-03-08T03:27:53;99709.44;;;-6.18;62.03
55347;BME280;41218;55.700;38.270;2024-03-08T03:32:56;99694.34;;;-6.25;62.99
55347;BME280;41218;55.700;38.270;2024-03-08T03:38:01;99704.34;;;-6.15;62.57
55347;BME280;41218;55.700;38.270;2024-03-08T03:43:08;99696.28;;;-6.15;62.30
55347;BME280;41218;55.700;38.270;2024-03-08T03:48:12;99691.69;;;-6.14;62.63
55347;BME280;41218;55.700;38.270;2024-03-08T03:53:13;99691.44;;;-6.13;63.01
55347;BME280;41218;55.700;38.270;2024-03-08T03:58:13;99692.84;;;-6.05;63.16
55347;BME280;41218;55.700;38.270;2024-03-08T04:03:15;99671.06;;;-6.03;63.10
55347;BME280;41218;55.700;38.270;2024-03-08T04:08:17;99684.53;;;-5.93;63.07
55347;BME280;41218;55.700;38.270;2024-03-08T04:13:17;99643.31;;;-6.09;62.63
55347;BME280;41218;55.700;38.270;2024-03-08T04:18:18;99668.69;;;-5.85;62.94
55347;BME280;41218;55.700;38.270;2024-03-08T04:23:19;99675.94;;;-5.85;62.88
55347;BME280;41218;55.700;38.270;2024-03-08T04:28:20;99676.25;;;-5.81;62.99
55347;BME280;41218;55.700;38.270;2024-03-08T04:33:20;99659.28;;;-5.77;62.57
55347;BME280;41218;55.700;38.270;2024-03-08T04:38:22;99670.59;;;-5.75;63.62
55347;BME280;41218;55.700;38.270;2024-03-08T04:43:23;99667.09;;;-5.70;63.51
55347;BME280;41218;55.700;38.270;2024-03-08T04:48:28;99661.97;;;-5.72;64.07
55347;BME280;41218;55.700;38.270;2024-03-08T04:53:28;99670.13;;;-5.56;63.73
55347;BME280;41218;55.700;38.270;2024-03-08T04:58:29;99656.09;;;-5.58;63.79
55347;BME280;41218;55.700;38.270;2024-03-08T05:03:29;99659.09;;;-5.50;64.10
55347;BME280;41218;55.700;38.270;2024-03-08T05:08:30;99666.66;;;-5.47;64.37
55347;BME280;41218;55.700;38.270;2024-03-08T05:13:31;99647.53;;;-5.45;64.26
55347;BME280;41218;55.700;38.270;2024-03-08T05:18:32;99649.41;;;-5.35;64.63
55347;BME280;41218;55.700;38.270;2024-03-08T05:23:32;99649.69;;;-5.37;64.68
55347;BME280;41218;55.700;38.270;2024-03-08T05:28:34;99650.50;;;-5.31;65.46
55347;BME280;41218;55.700;38.270;2024-03-08T05:33:35;99632.47;;;-5.31;65.12
55347;BME280;41218;55.700;38.270;2024-03-08T05:38:35;99647.56;;;-5.19;65.25
55347;BME280;41218;55.700;38.270;2024-03-08T05:43:36;99634.63;;;-5.12;65.10
55347;BME280;41218;55.700;38.270;2024-03-08T05:48:36;99644.59;;;-5.08;64.96
55347;BME280;41218;55.700;38.270;2024-03-08T05:53:39;99635.69;;;-5.03;65.23
55347;BME280;41218;55.700;38.270;2024-03-08T05:58:40;99628.16;;;-4.86;65.41
55347;BME280;41218;55.700;38.270;2024-03-08T06:03:40;99645.13;;;-4.70;65.02
55347;BME280;41218;55.700;38.270;2024-03-08T06:08:45;99636.47;;;-4.56;65.26
55347;BME280;41218;55.700;38.270;2024-03-08T06:13:49;99636.22;;;-4.50;65.30
55347;BME280;41218;55.700;38.270;2024-03-08T06:18:50;99638.84;;;-4.34;64.86
55347;BME280;41218;55.700;38.270;2024-03-08T06:23:50;99634.25;;;-4.24;65.12
55347;BME280;41218;55.700;38.270;2024-03-08T06:28:51;99625.88;;;-4.17;65.21
55347;BME280;41218;55.700;38.270;2024-03-08T06:33:52;99627.72;;;-4.07;65.14
55347;BME280;41218;55.700;38.270;2024-03-08T06:38:54;99622.03;;;-4.00;65.39
55347;BME280;41218;55.700;38.270;2024-03-08T06:43:56;99608.78;;;-3.97;65.83
55347;BME280;41218;55.700;38.270;2024-03-08T06:48:58;99616.84;;;-3.87;64.56
55347;BME280;41218;55.700;38.270;2024-03-08T06:53:58;99620.28;;;-3.76;65.29
55347;BME280;41218;55.700;38.270;2024-03-08T06:59:00;99633.47;;;-3.69;65.57
55347;BME280;41218;55.700;38.270;2024-03-08T07:04:03;99625.88;;;-3.62;65.32
55347;BME280;41218;55.700;38.270;2024-03-08T07:09:05;99630.44;;;-3.52;65.25
55347;BME280;41218;55.700;38.270;2024-03-08T07:14:06;99619.50;;;-3.37;65.04
55347;BME280;41218;55.700;38.270;2024-03-08T07:19:07;99625.41;;;-3.30;65.27
55347;BME280;41218;55.700;38.270;2024-03-08T07:24:09;99618.63;;;-3.22;65.13
55347;BME280;41218;55.700;38.270;2024-03-08T07:29:26;99626.06;;;-3.09;64.93
55347;BME280;41218;55.700;38.270;2024-03-08T07:34:27;99614.44;;;-3.04;64.86
55347;BME280;41218;55.700;38.270;2024-03-08T07:39:32;99624.34;;;-2.94;64.51
55347;BME280;41218;55.700;38.270;2024-03-08T07:44:32;99618.09;;;-2.90;64.82
55347;BME280;41218;55.700;38.270;2024-03-08T07:49:33;99618.75;;;-2.74;64.81
55347;BME280;41218;55.700;38.270;2024-03-08T07:54:36;99628.56;;;-2.54;64.65
55347;BME280;41218;55.700;38.270;2024-03-08T07:59:36;99615.25;;;-2.45;64.50
55347;BME280;41218;55.700;38.270;2024-03-08T08:04:37;99613.50;;;-2.36;64.55
55347;BME280;41218;55.700;38.270;2024-03-08T08:09:39;99606.41;;;-2.32;64.61
55347;BME280;41218;55.700;38.270;2024-03-08T08:14:39;99611.78;;;-2.27;64.28
55347;BME280;41218;55.700;38.270;2024-03-08T08:19:41;99602.50;;;-2.20;63.98
55347;BME280;41218;55.700;38.270;2024-03-08T08:24:41;99612.88;;;-2.04;64.23
55347;BME280;41218;55.700;38.270;2024-03-08T08:29:43;99605.00;;;-1.81;64.23
55347;BME280;41218;55.700;38.270;2024-03-08T08:34:46;99608.22;;;-1.79;63.77
55347;BME280;41218;55.700;38.270;2024-03-08T08:39:47;99604.06;;;-1.71;63.92
55347;BME280;41218;55.700;38.270;2024-03-08T08:44:51;99613.16;;;-1.62;63.70
55347;BME280;41218;55.700;38.270;2024-03-08T08:49:52;99597.84;;;-1.72;63.47
55347;BME280;41218;55.700;38.270;2024-03-08T08:54:54;99601.81;;;-1.64;63.87
55347;BME280;41218;55.700;38.270;2024-03-08T08:59:55;99600.63;;;-1.58;64.23
55347;BME280;41218;55.700;38.270;2024-03-08T09:04:55;99595.88;;;-1.47;64.22
55347;BME280;41218;55.700;38.270;2024-03-08T09:09:56;99581.66;;;-1.39;63.60
55347;BME280;41218;55.700;38.270;2024-03-08T09:14:58;99578.03;;;-1.34;63.88
55347;BME280;41218;55.700;38.270;2024-03-08T09:19:59;99577.66;;;-1.09;63.71
55347;BME280;41218;55.700;38.270;2024-03-08T09:25:00;99565.50;;;-0.97;63.44
55347;BME280;41218;55.700;38.270;2024-03-08T09:30:02;99570.69;;;-0.82;63.34
55347;BME280;41218;55.700;38.270;2024-03-08T09:35:03;99572.81;;;-0.79;63.01
55347;BME280;41218;55.700;38.270;2024-03-08T09:40:07;99570.09;;;-0.65;63.08
55347;BME280;41218;55.700;38.270;2024-03-08T09:45:16;99566.50;;;-0.61;62.92
55347;BME280;41218;55.700;38.270;2024-03-08T09:50:17;99574.97;;;-0.48;63.24
55347;BME280;41218;55.700;38.270;2024-03-08T09:55:19;99570.94;;;-0.37;62.67
55347;BME280;41218;55.700;38.270;2024-03-08T10:00:22;99564.41;;;-0.36;62.81
55347;BME280;41218;55.700;38.270;2024-03-08T10:05:24;99565.63;;;-0.28;62.65
55347;BME280;41218;55.700;38.270;2024-03-08T10:10:25;99565.00;;;-0.25;62.86
55347;BME280;41218;55.700;38.270;2024-03-08T10:15:29;99553.94;;;-0.15;62.72
55347;BME280;41218;55.700;38.270;2024-03-08T10:20:33;99560.88;;;-0.09;62.53
55347;BME280;41218;55.700;38.270;2024-03-08T10:25:34;99556.84;;;-0.11;62.83
55347;BME280;41218;55.700;38.270;2024-03-08T10:30:35;99564.78;;;-0.01;62.31
55347;BME280;41218;55.700;38.270;2024-03-08T10:35:35;99563.69;;;-0.14;62.32
55347;BME280;41218;55.700;38.270;2024-03-08T10:40:37;99567.22;;;-0.13;62.55
55347;BME280;41218;55.700;38.270;2024-03-08T10:45:40;99565.72;;;-0.19;62.75
55347;BME280;41218;55.700;38.270;2024-03-08T10:50:44;99553.34;;;-0.26;63.01
55347;BME280;41218;55.700;38.270;2024-03-08T10:55:50;99564.00;;;-0.15;62.95
55347;BME280;41218;55.700;38.270;2024-03-08T11:00:54;99560.78;;;-0.04;62.98
55347;BME280;41218;55.700;38.270;2024-03-08T11:05:56;99560.44;;;-0.02;62.67
55347;BME280;41218;55.700;38.270;2024-03-08T11:10:57;99562.97;;;0.08;62.69
55347;BME280;41218;55.700;38.270;2024-03-08T11:15:58;99551.06;;;0.18;61.96
55347;BME280;41218;55.700;38.270;2024-03-08T11:21:04;99551.78;;;0.10;62.78
55347;BME280;41218;55.700;38.270;2024-03-08T11:26:20;99548.25;;;0.09;62.79
55347;BME280;41218;55.700;38.270;2024-03-08T11:31:23;99543.72;;;0.18;62.61
55347;BME280;41218;55.700;38.270;2024-03-08T11:36:25;99538.22;;;0.32;62.36
55347;BME280;41218;55.700;38.270;2024-03-08T11:41:25;99541.16;;;0.36;62.50
55347;BME280;41218;55.700;38.270;2024-03-08T11:46:26;99537.63;;;0.35;62.60
55347;BME280;41218;55.700;38.270;2024-03-08T11:51:28;99530.84;;;0.47;62.34
55347;BME280;41218;55.700;38.270;2024-03-08T11:56:30;99524.19;;;0.53;62.17
55347;BME280;41218;55.700;38.270;2024-03-08T12:01:33;99533.69;;;0.64;62.02
55347;BME280;41218;55.700;38.270;2024-03-08T12:06:38;99536.91;;;0.66;61.95
55347;BME280;41218;55.700;38.270;2024-03-08T12:11:42;99543.03;;;0.72;61.86
55347;BME280;41218;55.700;38.270;2024-03-08T12:16:44;99535.81;;;0.67;61.69
55347;BME280;41218;55.700;38.270;2024-03-08T12:21:46;99515.78;;;0.63;61.83
55347;BME280;41218;55.700;38.270;2024-03-08T12:26:50;99525.22;;;0.66;61.65
55347;BME280;41218;55.700;38.270;2024-03-08T12:31:52;99528.88;;;0.61;61.73
55347;BME280;41218;55.700;38.270;2024-03-08T12:36:54;99541.59;;;0.74;61.42
55347;BME280;41218;55.700;38.270;2024-03-08T12:41:56;99553.97;;;0.80;61.30
55347;BME280;41218;55.700;38.270;2024-03-08T12:46:59;99550.75;;;0.78;61.10
55347;BME280;41218;55.700;38.270;2024-03-08T12:52:01;99557.75;;;0.71;61.21
55347;BME280;41218;55.700;38.270;2024-03-08T12:57:02;99542.59;;;0.56;61.49
55347;BME280;41218;55.700;38.270;2024-03-08T13:02:05;99539.28;;;0.59;61.80
55347;BME280;41218;55.700;38.270;2024-03-08T13:07:11;99543.88;;;0.58;61.76
55347;BME280;41218;55.700;38.270;2024-03-08T13:12:12;99549.22;;;0.64;61.60
55347;BME280;41218;55.700;38.270;2024-03-08T13:17:14;99547.59;;;0.63;61.58
55347;BME280;41218;55.700;38.270;2024-03-08T13:22:14;99538.28;;;0.55;61.87
55347;BME280;41218;55.700;38.270;2024-03-08T13:27:16;99546.31;;;0.60;61.56
55347;BME280;41218;55.700;38.270;2024-03-08T13:32:22;99561.19;;;0.63;61.50
55347;BME280;41218;55.700;38.270;2024-03-08T13:37:24;99534.94;;;0.58;61.63
55347;BME280;41218;55.700;38.270;2024-03-08T13:42:25;99519.53;;;0.53;61.30
55347;BME280;41218;55.700;38.270;2024-03-08T13:47:26;99544.31;;;0.52;61.69
55347;BME280;41218;55.700;38.270;2024-03-08T13:52:27;99547.84;;;0.52;61.59
55347;BME280;41218;55.700;38.270;2024-03-08T13:57:31;99544.81;;;0.54;61.18
55347;BME280;41218;55.700;38.270;2024-03-08T14:02:32;99557.03;;;0.43;61.34
55347;BME280;41218;55.700;38.270;2024-03-08T14:07:34;99557.66;;;0.39;61.46
55347;BME280;41218;55.700;38.270;2024-03-08T14:12:58;99551.44;;;0.39;61.39
55347;BME280;41218;55.700;38.270;2024-03-08T14:18:00;99547.09;;;0.38;61.44
55347;BME280;41218;55.700;38.270;2024-03-08T14:23:01;99550.59;;;0.38;60.90
55347;BME280;41218;55.700;38.270;2024-03-08T14:28:06;99537.56;;;0.27;61.33
55347;BME280;41218;55.700;38.270;2024-03-08T14:33:08;99553.94;;;0.35;61.43
55347;BME280;41218;55.700;38.270;2024-03-08T14:38:12;99557.88;;;0.29;61.33
55347;BME280;41218;55.700;38.270;2024-03-08T14:43:17;99562.53;;;0.29;61.22
55347;BME280;41218;55.700;38.270;2024-03-08T14:48:20;99563.41;;;0.24;61.23
55347;BME280;41218;55.700;38.270;2024-03-08T14:53:22;99558.41;;;0.17;61.43
55347;BME280;41218;55.700;38.270;2024-03-08T14:58:22;99558.13;;;0.19;61.37
55347;BME280;41218;55.700;38.270;2024-03-08T15:03:25;99558.13;;;0.19;61.53
55347;BME280;41218;55.700;38.270;2024-03-08T15:08:26;99563.06;;;0.17;61.79
55347;BME280;41218;55.700;38.270;2024-03-08T15:13:27;99560.13;;;0.13;61.75
55347;BME280;41218;55.700;38.270;2024-03-08T15:18:34;99565.69;;;0.08;61.96
55347;BME280;41218;55.700;38.270;2024-03-08T15:23:36;99563.16;;;0.12;62.00
55347;BME280;41218;55.700;38.270;2024-03-08T15:28:37;99553.63;;;0.01;62.04
55347;BME280;41218;55.700;38.270;2024-03-08T15:33:39;99566.91;;;0.02;62.33
55347;BME280;41218;55.700;38.270;2024-03-08T15:38:48;99568.22;;;0.05;62.49
55347;BME280;41218;55.700;38.270;2024-03-08T15:43:52;99563.56;;;0.05;62.31
55347;BME280;41218;55.700;38.270;2024-03-08T15:48:53;99572.22;;;0.07;62.59
55347;BME280;41218;55.700;38.270;2024-03-08T15:53:55;99600.53;;;0.06;62.84
55347;BME280;41218;55.700;38.270;2024-03-08T15:58:56;99591.97;;;-0.01;62.82
55347;BME280;41218;55.700;38.270;2024-03-08T16:03:58;99595.09;;;-0.08;63.99
55347;BME280;41218;55.700;38.270;2024-03-08T16:08:59;99600.81;;;-0.09;63.91
55347;BME280;41218;55.700;38.270;2024-03-08T16:14:00;99598.00;;;-0.18;63.98
55347;BME280;41218;55.700;38.270;2024-03-08T16:19:04;99597.81;;;-0.22;64.19
55347;BME280;41218;55.700;38.270;2024-03-08T16:24:07;99590.94;;;-0.33;64.41
55347;BME280;41218;55.700;38.270;2024-03-08T16:29:09;99592.38;;;-0.35;64.38
55347;BME280;41218;55.700;38.270;2024-03-08T16:34:11;99575.25;;;-0.50;64.72
55347;BME280;41218;55.700;38.270;2024-03-08T16:39:16;99587.63;;;-0.44;65.14
55347;BME280;41218;55.700;38.270;2024-03-08T16:44:18;99580.69;;;-0.50;65.22
55347;BME280;41218;55.700;38.270;2024-03-08T16:49:20;99579.16;;;-0.56;64.80
55347;BME280;41218;55.700;38.270;2024-03-08T16:54:20;99583.59;;;-0.60;65.16
55347;BME280;41218;55.700;38.270;2024-03-08T16:59:23;99588.59;;;-0.67;64.94
55347;BME280;41218;55.700;38.270;2024-03-08T17:04:24;99586.00;;;-0.72;64.92
55347;BME280;41218;55.700;38.270;2024-03-08T17:09:26;99606.41;;;-0.75;65.05
55347;BME280;41218;55.700;38.270;2024-03-08T17:14:30;99591.19;;;-0.76;65.30
55347;BME280;41218;55.700;38.270;2024-03-08T17:19:33;99584.75;;;-0.80;65.48
55347;BME280;41218;55.700;38.270;2024-03-08T17:24:34;99585.88;;;-0.81;65.42
55347;BME280;41218;55.700;38.270;2024-03-08T17:29:34;99586.38;;;-0.79;65.34
55347;BME280;41218;55.700;38.270;2024-03-08T17:34:38;99581.63;;;-0.87;65.53
55347;BME280;41218;55.700;38.270;2024-03-08T17:39:40;99588.72;;;-0.91;65.63
55347;BME280;41218;55.700;38.270;2024-03-08T17:44:42;99597.25;;;-0.98;65.29
55347;BME280;41218;55.700;38.270;2024-03-08T17:49:45;99592.28;;;-1.10;65.73
55347;BME280;41218;55.700;38.270;2024-03-08T17:54:47;99595.63;;;-1.13;65.75
55347;BME280;41218;55.700;38.270;2024-03-08T17:59:50;99591.59;;;-1.15;65.66
55347;BME280;41218;55.700;38.270;2024-03-08T18:04:51;99586.97;;;-1.15;65.55
55347;BME280;41218;55.700;38.270;2024-03-08T18:09:51;99579.22;;;-1.22;65.79
55347;BME280;41218;55.700;38.270;2024-03-08T18:14:52;99592.97;;;-1.18;66.27
55347;BME280;41218;55.700;38.270;2024-03-08T18:19:54;99591.94;;;-1.22;66.14
55347;BME280;41218;55.700;38.270;2024-03-08T18:24:55;99595.19;;;-1.20;66.14
55347;BME280;41218;55.700;38.270;2024-03-08T18:29:56;99598.72;;;-1.19;66.09
55347;BME280;41218;55.700;38.270;2024-03-08T18:34:56;99598.22;;;-1.22;65.91
55347;BME280;41218;55.700;38.270;2024-03-08T18:39:57;99596.88;;;-1.24;66.14
55347;BME280;41218;55.700;38.270;2024-03-08T18:44:59;99601.22;;;-1.23;66.24
55347;BME280;41218;55.700;38.270;2024-03-08T18:50:02;99607.53;;;-1.28;66.15
55347;BME280;41218;55.700;38.270;2024-03-08T18:55:04;99601.94;;;-1.36;66.11
55347;BME280;41218;55.700;38.270;2024-03-08T19:00:16;99611.75;;;-1.41;66.06
55347;BME280;41218;55.700;38.270;2024-03-08T19:05:29;99612.66;;;-1.45;66.23
55347;BME280;41218;55.700;38.270;2024-03-08T19:10:32;99609.19;;;-1.51;66.57
55347;BME280;41218;55.700;38.270;2024-03-08T19:15:36;99611.41;;;-1.53;66.35
55347;BME280;41218;55.700;38.270;2024-03-08T19:20:38;99602.59;;;-1.64;66.70
55347;BME280;41218;55.700;38.270;2024-03-08T19:25:40;99600.19;;;-1.65;66.46
55347;BME280;41218;55.700;38.270;2024-03-08T19:30:44;99601.34;;;-1.71;67.00
55347;BME280;41218;55.700;38.270;2024-03-08T19:35:45;99607.94;;;-1.77;66.39
55347;BME280;41218;55.700;38.270;2024-03-08T19:40:47;99608.00;;;-1.83;66.17
55347;BME280;41218;55.700;38.270;2024-03-08T19:45:49;99613.78;;;-1.89;66.73
55347;BME280;41218;55.700;38.270;2024-03-08T19:50:52;99603.06;;;-1.99;66.99
55347;BME280;41218;55.700;38.270;2024-03-08T19:55:55;99606.88;;;-2.00;66.69
55347;BME280;41218;55.700;38.270;2024-03-08T20:00:57;99605.25;;;-2.02;66.85
55347;BME280;41218;55.700;38.270;2024-03-08T20:05:59;99620.94;;;-1.98;66.62
55347;BME280;41218;55.700;38.270;2024-03-08T20:10:59;99613.47;;;-2.07;66.50
55347;BME280;41218;55.700;38.270;2024-03-08T20:16:06;99613.78;;;-2.13;66.14
55347;BME280;41218;55.700;38.270;2024-03-08T20:21:09;99616.56;;;-2.18;66.29
55347;BME280;41218;55.700;38.270;2024-03-08T20:26:10;99604.19;;;-2.25;66.45
55347;BME280;41218;55.700;38.270;2024-03-08T20:31:11;99605.53;;;-2.27;66.37
55347;BME280;41218;55.700;38.270;2024-03-08T20:36:13;99609.94;;;-2.31;66.74
55347;BME280;41218;55.700;38.270;2024-03-08T20:41:15;99585.69;;;-2.42;66.46
55347;BME280;41218;55.700;38.270;2024-03-08T20:46:16;99591.91;;;-2.41;66.80
55347;BME280;41218;55.700;38.270;2024-03-08T20:51:17;99592.47;;;-2.44;66.48
55347;BME280;41218;55.700;38.270;2024-03-08T20:56:20;99599.78;;;-2.45;66.85
55347;BME280;41218;55.700;38.270;2024-03-08T21:01:20;99595.78;;;-2.47;67.33
55347;BME280;41218;55.700;38.270;2024-03-08T21:06:21;99602.53;;;-2.50;66.95
55347;BME280;41218;55.700;38.270;2024-03-08T21:11:23;99603.66;;;-2.51;66.53
55347;BME280;41218;55.700;38.270;2024-03-08T21:16:23;99608.91;;;-2.59;66.93
55347;BME280;41218;55.700;38.270;2024-03-08T21:21:24;99603.75;;;-2.61;66.59
55347;BME280;41218;55.700;38.270;2024-03-08T21:26:26;99606.75;;;-2.63;66.84
55347;BME280;41218;55.700;38.270;2024-03-08T21:31:26;99614.31;;;-2.59;66.88
55347;BME280;41218;55.700;38.270;2024-03-08T21:36:28;99608.13;;;-2.65;67.25
55347;BME280;41218;55.700;38.270;2024-03-08T21:41:29;99609.69;;;-2.59;66.96
55347;BME280;41218;55.700;38.270;2024-03-08T21:46:30;99610.25;;;-2.62;66.79
55347;BME280;41218;55.700;38.270;2024-03-08T21:51:30;99607.03;;;-2.64;66.42
55347;BME280;41218;55.700;38.270;2024-03-08T21:56:34;99607.88;;;-2.69;66.85
55347;BME280;41218;55.700;38.270;2024-03-08T22:01:36;99608.16;;;-2.70;67.30
55347;BME280;41218;55.700;38.270;2024-03-08T22:06:36;99614.97;;;-2.73;67.06
55347;BME280;41218;55.700;38.270;2024-03-08T22:11:37;99607.91;;;-2.74;66.92
55347;BME280;41218;55.700;38.270;2024-03-08T22:16:38;99620.38;;;-2.73;66.90
55347;BME280;41218;55.700;38.270;2024-03-08T22:21:41;99624.47;;;-2.75;66.99
55347;BME280;41218;55.700;38.270;2024-03-08T22:26:41;99617.69;;;-2.78;66.75
55347;BME280;41218;55.700;38.270;2024-03-08T22:31:44;99617.69;;;-2.78;66.81
55347;BME280;41218;55.700;38.270;2024-03-08T22:36:46;99619.56;;;-2.73;66.59
55347;BME280;41218;55.700;38.270;2024-03-08T22:41:46;99624.22;;;-2.79;66.71
55347;BME280;41218;55.700;38.270;2024-03-08T22:46:47;99627.44;;;-2.77;67.10
55347;BME280;41218;55.700;38.270;2024-03-08T22:51:48;99621.78;;;-2.80;66.77
55347;BME280;41218;55.700;38.270;2024-03-08T22:56:50;99627.19;;;-2.80;66.72
55347;BME280;41218;55.700;38.270;2024-03-08T23:01:53;99626.63;;;-2.77;66.88
55347;BME280;41218;55.700;38.270;2024-03-08T23:06:54;99632.06;;;-2.77;66.82
55347;BME280;41218;55.700;38.270;2024-03-08T23:11:55;99630.41;;;-2.78;66.88
55347;BME280;41218;55.700;38.270;2024-03-08T23:16:55;99635.31;;;-2.80;67.26
55347;BME280;41218;55.700;38.270;2024-03-08T23:21:57;99625.28;;;-2.80;66.92
55347;BME280;41218;55.700;38.270;2024-03-08T23:27:01;99629.03;;;-2.76;66.62
55347;BME280;41218;55.700;38.270;2024-03-08T23:32:02;99630.16;;;-2.77;66.75
55347;BME280;41218;55.700;38.270;2024-03-08T23:37:02;99630.94;;;-2.76;66.62
55347;BME280;41218;55.700;38.270;2024-03-08T23:42:04;99632.06;;;-2.77;67.08
55347;BME280;41218;55.700;38.270;2024-03-08T23:47:05;99633.66;;;-2.76;67.09
55347;BME280;41218;55.700;38.270;2024-03-08T23:52:07;99639.06;;;-2.76;66.64
55347;BME280;41218;55.700;38.270;2024-03-08T23:57:08;99628.06;;;-2.85;66.51
